Главная страница
METAR-TAF:

METAR-TAF

Аэропорты :

Орск, Россия

широта: 51-04-18N, долгота: 058-35-48E, высота над уровнем моря: 277 м

Текущие метеонаблюдения

Эта сводка был подготовлена 55 минут назад, в 02:00 UTC
Ветер 10 Узел от западный
Температура 12°C
Влажность 62%
Давление 1016 hPa
Видимость 10 км и более
Нет облачности ниже 1500 м, и нет кучево-дождевой облачности

METAR: UWOR 210200Z 27005MPS CAVOK 12/05 Q1016 R25/CLRD65 NOSIG RMK QFE739/0985

Время: 07:55 (02:55 UTC)

Прогноз

Эта сводка был подготовлена 55 минут назад, в 02:00 UTC
Прогноз действительный с 21-го 03 UTC до 21-го 12 UTC
Ветер 12 Узел от западный с порывами до 25 Узел
Видимость 10 км и более
Рассеянная облачность на высоте 3000 фута
Отдельные облака на высоте 3300 фута, Кучево-дождевые.
временами
С 21-го 03 UTC до 21-го 12 UTC
Ветер 14 Узел от западно-северо-западный с порывами до 27 Узел

TAF: UWOR 210200Z 2103/2112 28006G13MPS 9999 BKN030 SCT033CB TEMPO 2103/2112 30007G14MPS

Метеонаблюдения и прогнозы для более 4000 аэропортов (сводки METAR и TAF).

Имеющиеся станции представлены на карте желтыми и красными точками.

Чтобы увидеть название станции, наведите на нее мышь.

Затем щелкните, чтобы увидеть метеонаблюдения и метеопрогнозы.

Управление картой: чтобы увеличить масштаб, щелкните зеленые кнопки с черным крестиком; чтобы уменьшить масштаб, щелкните зеленую кнопку с тире; для просмотра соседних карт щелкайте зеленые стрелки.


METAR-TAF: